sensor_id;sensor_type;location;lat;lon;timestamp;P1;durP1;ratioP1;P2;durP2;ratioP2
2458;SDS011;1241;50.920;6.936;2023-02-15T00:01:34;62.85;;;33.63;;
2458;SDS011;1241;50.920;6.936;2023-02-15T00:04:01;49.85;;;31.80;;
2458;SDS011;1241;50.920;6.936;2023-02-15T00:06:27;53.45;;;30.92;;
2458;SDS011;1241;50.920;6.936;2023-02-15T00:08:54;54.33;;;29.63;;
2458;SDS011;1241;50.920;6.936;2023-02-15T00:11:20;49.72;;;32.67;;
2458;SDS011;1241;50.920;6.936;2023-02-15T00:14:12;60.85;;;33.10;;
2458;SDS011;1241;50.920;6.936;2023-02-15T00:16:44;56.38;;;30.73;;
2458;SDS011;1241;50.920;6.936;2023-02-15T00:19:10;50.67;;;30.70;;
2458;SDS011;1241;50.920;6.936;2023-02-15T00:21:37;49.42;;;32.40;;
2458;SDS011;1241;50.920;6.936;2023-02-15T00:24:05;47.25;;;27.95;;
2458;SDS011;1241;50.920;6.936;2023-02-15T00:26:32;39.30;;;28.00;;
2458;SDS011;1241;50.920;6.936;2023-02-15T00:28:59;51.75;;;30.25;;
2458;SDS011;1241;50.920;6.936;2023-02-15T00:31:26;54.42;;;32.75;;
2458;SDS011;1241;50.920;6.936;2023-02-15T00:33:55;55.28;;;33.92;;
2458;SDS011;1241;50.920;6.936;2023-02-15T00:36:46;53.75;;;31.40;;
2458;SDS011;1241;50.920;6.936;2023-02-15T00:39:13;56.15;;;34.10;;
2458;SDS011;1241;50.920;6.936;2023-02-15T00:41:40;51.50;;;31.20;;
2458;SDS011;1241;50.920;6.936;2023-02-15T00:44:06;54.80;;;31.45;;
2458;SDS011;1241;50.920;6.936;2023-02-15T00:46:32;53.92;;;32.25;;
2458;SDS011;1241;50.920;6.936;2023-02-15T00:48:59;54.45;;;30.63;;
2458;SDS011;1241;50.920;6.936;2023-02-15T00:51:25;54.85;;;33.35;;
2458;SDS011;1241;50.920;6.936;2023-02-15T00:53:51;55.17;;;30.75;;
2458;SDS011;1241;50.920;6.936;2023-02-15T00:56:17;47.37;;;31.67;;
2458;SDS011;1241;50.920;6.936;2023-02-15T00:58:44;53.67;;;32.42;;
2458;SDS011;1241;50.920;6.936;2023-02-15T01:01:14;47.78;;;30.15;;
2458;SDS011;1241;50.920;6.936;2023-02-15T01:03:43;57.65;;;33.90;;
2458;SDS011;1241;50.920;6.936;2023-02-15T01:06:11;51.65;;;31.63;;
2458;SDS011;1241;50.920;6.936;2023-02-15T01:08:37;49.35;;;28.95;;
2458;SDS011;1241;50.920;6.936;2023-02-15T01:11:07;52.65;;;32.08;;
2458;SDS011;1241;50.920;6.936;2023-02-15T01:13:34;56.35;;;32.90;;
2458;SDS011;1241;50.920;6.936;2023-02-15T01:16:00;51.53;;;29.15;;
2458;SDS011;1241;50.920;6.936;2023-02-15T01:18:27;45.03;;;29.55;;
2458;SDS011;1241;50.920;6.936;2023-02-15T01:20:53;50.80;;;29.40;;
2458;SDS011;1241;50.920;6.936;2023-02-15T01:23:18;48.07;;;28.77;;
2458;SDS011;1241;50.920;6.936;2023-02-15T01:25:45;43.92;;;27.38;;
2458;SDS011;1241;50.920;6.936;2023-02-15T01:28:11;47.87;;;27.60;;
2458;SDS011;1241;50.920;6.936;2023-02-15T01:30:38;54.05;;;30.02;;
2458;SDS011;1241;50.920;6.936;2023-02-15T01:33:03;55.47;;;31.57;;
2458;SDS011;1241;50.920;6.936;2023-02-15T01:35:30;55.92;;;32.70;;
2458;SDS011;1241;50.920;6.936;2023-02-15T01:37:56;59.83;;;31.30;;
2458;SDS011;1241;50.920;6.936;2023-02-15T01:40:22;51.23;;;28.70;;
2458;SDS011;1241;50.920;6.936;2023-02-15T01:42:51;49.80;;;28.70;;
2458;SDS011;1241;50.920;6.936;2023-02-15T01:48:03;41.85;;;28.83;;
2458;SDS011;1241;50.920;6.936;2023-02-15T01:50:43;52.10;;;30.30;;
2458;SDS011;1241;50.920;6.936;2023-02-15T01:53:18;52.05;;;29.55;;
2458;SDS011;1241;50.920;6.936;2023-02-15T01:58:31;52.83;;;33.22;;
2458;SDS011;1241;50.920;6.936;2023-02-15T02:00:59;50.20;;;28.77;;
2458;SDS011;1241;50.920;6.936;2023-02-15T02:06:10;51.03;;;27.65;;
2458;SDS011;1241;50.920;6.936;2023-02-15T02:08:38;53.70;;;28.60;;
2458;SDS011;1241;50.920;6.936;2023-02-15T02:11:12;54.95;;;30.60;;
2458;SDS011;1241;50.920;6.936;2023-02-15T02:13:39;48.97;;;30.85;;
2458;SDS011;1241;50.920;6.936;2023-02-15T02:16:28;51.58;;;28.75;;
2458;SDS011;1241;50.920;6.936;2023-02-15T02:36:43;52.35;;;28.08;;
2458;SDS011;1241;50.920;6.936;2023-02-15T02:44:49;52.03;;;29.88;;
2458;SDS011;1241;50.920;6.936;2023-02-15T02:47:31;54.83;;;27.45;;
2458;SDS011;1241;50.920;6.936;2023-02-15T02:50:21;50.85;;;28.60;;
2458;SDS011;1241;50.920;6.936;2023-02-15T02:52:50;51.05;;;28.35;;
2458;SDS011;1241;50.920;6.936;2023-02-15T02:55:32;52.33;;;30.92;;
2458;SDS011;1241;50.920;6.936;2023-02-15T02:58:24;49.75;;;28.95;;
2458;SDS011;1241;50.920;6.936;2023-02-15T03:01:01;50.00;;;26.92;;
2458;SDS011;1241;50.920;6.936;2023-02-15T03:06:20;44.00;;;24.50;;
2458;SDS011;1241;50.920;6.936;2023-02-15T03:09:00;42.45;;;25.15;;
2458;SDS011;1241;50.920;6.936;2023-02-15T03:11:46;47.97;;;27.80;;
2458;SDS011;1241;50.920;6.936;2023-02-15T03:14:14;48.88;;;26.65;;
2458;SDS011;1241;50.920;6.936;2023-02-15T03:16:43;54.53;;;31.83;;
2458;SDS011;1241;50.920;6.936;2023-02-15T03:19:13;53.65;;;28.27;;
2458;SDS011;1241;50.920;6.936;2023-02-15T03:21:51;46.80;;;28.35;;
2458;SDS011;1241;50.920;6.936;2023-02-15T03:24:36;47.85;;;26.83;;
2458;SDS011;1241;50.920;6.936;2023-02-15T03:27:17;61.13;;;31.38;;
2458;SDS011;1241;50.920;6.936;2023-02-15T03:29:46;49.85;;;26.95;;
2458;SDS011;1241;50.920;6.936;2023-02-15T03:32:22;51.20;;;26.33;;
2458;SDS011;1241;50.920;6.936;2023-02-15T03:34:50;50.10;;;26.80;;
2458;SDS011;1241;50.920;6.936;2023-02-15T03:37:25;52.38;;;27.80;;
2458;SDS011;1241;50.920;6.936;2023-02-15T03:40:02;46.22;;;26.80;;
2458;SDS011;1241;50.920;6.936;2023-02-15T03:45:41;52.88;;;27.77;;
2458;SDS011;1241;50.920;6.936;2023-02-15T03:48:26;49.30;;;27.10;;
2458;SDS011;1241;50.920;6.936;2023-02-15T03:50:58;49.67;;;26.80;;
2458;SDS011;1241;50.920;6.936;2023-02-15T03:53:47;46.28;;;26.30;;
2458;SDS011;1241;50.920;6.936;2023-02-15T03:56:14;42.03;;;26.30;;
2458;SDS011;1241;50.920;6.936;2023-02-15T03:58:40;49.57;;;27.37;;
2458;SDS011;1241;50.920;6.936;2023-02-15T04:01:27;49.63;;;27.35;;
2458;SDS011;1241;50.920;6.936;2023-02-15T04:04:18;44.75;;;25.85;;
2458;SDS011;1241;50.920;6.936;2023-02-15T04:06:46;50.03;;;26.52;;
2458;SDS011;1241;50.920;6.936;2023-02-15T04:09:12;54.10;;;26.40;;
2458;SDS011;1241;50.920;6.936;2023-02-15T04:11:56;47.92;;;26.27;;
2458;SDS011;1241;50.920;6.936;2023-02-15T04:14:22;47.03;;;25.13;;
2458;SDS011;1241;50.920;6.936;2023-02-15T04:17:07;48.88;;;26.15;;
2458;SDS011;1241;50.920;6.936;2023-02-15T04:19:33;46.03;;;27.40;;
2458;SDS011;1241;50.920;6.936;2023-02-15T04:22:18;49.70;;;27.77;;
2458;SDS011;1241;50.920;6.936;2023-02-15T04:25:02;48.22;;;25.88;;
2458;SDS011;1241;50.920;6.936;2023-02-15T04:27:34;48.92;;;26.08;;
2458;SDS011;1241;50.920;6.936;2023-02-15T04:30:00;47.10;;;25.45;;
2458;SDS011;1241;50.920;6.936;2023-02-15T04:32:26;49.00;;;26.50;;
2458;SDS011;1241;50.920;6.936;2023-02-15T04:34:52;54.28;;;28.00;;
2458;SDS011;1241;50.920;6.936;2023-02-15T04:37:18;44.95;;;26.77;;
2458;SDS011;1241;50.920;6.936;2023-02-15T04:39:44;46.33;;;25.93;;
2458;SDS011;1241;50.920;6.936;2023-02-15T04:42:10;52.23;;;28.37;;
2458;SDS011;1241;50.920;6.936;2023-02-15T04:44:35;48.80;;;29.10;;
2458;SDS011;1241;50.920;6.936;2023-02-15T04:47:01;44.20;;;25.40;;
2458;SDS011;1241;50.920;6.936;2023-02-15T04:49:27;43.73;;;25.00;;
2458;SDS011;1241;50.920;6.936;2023-02-15T04:51:52;45.57;;;23.60;;
2458;SDS011;1241;50.920;6.936;2023-02-15T04:54:18;44.23;;;26.77;;
2458;SDS011;1241;50.920;6.936;2023-02-15T04:56:44;44.70;;;25.67;;
2458;SDS011;1241;50.920;6.936;2023-02-15T04:59:10;46.87;;;25.90;;
2458;SDS011;1241;50.920;6.936;2023-02-15T05:01:36;49.30;;;29.35;;
2458;SDS011;1241;50.920;6.936;2023-02-15T05:04:02;43.33;;;24.07;;
2458;SDS011;1241;50.920;6.936;2023-02-15T05:06:28;43.38;;;26.48;;
2458;SDS011;1241;50.920;6.936;2023-02-15T05:08:54;47.17;;;25.52;;
2458;SDS011;1241;50.920;6.936;2023-02-15T05:11:20;37.63;;;22.07;;
2458;SDS011;1241;50.920;6.936;2023-02-15T05:13:46;44.73;;;25.80;;
2458;SDS011;1241;50.920;6.936;2023-02-15T05:16:12;43.90;;;24.73;;
2458;SDS011;1241;50.920;6.936;2023-02-15T05:18:37;46.67;;;24.47;;
2458;SDS011;1241;50.920;6.936;2023-02-15T05:21:03;42.07;;;24.60;;
2458;SDS011;1241;50.920;6.936;2023-02-15T05:23:29;44.87;;;25.00;;
2458;SDS011;1241;50.920;6.936;2023-02-15T05:25:55;46.47;;;26.43;;
2458;SDS011;1241;50.920;6.936;2023-02-15T05:28:39;46.85;;;26.88;;
2458;SDS011;1241;50.920;6.936;2023-02-15T05:31:06;51.73;;;24.97;;
2458;SDS011;1241;50.920;6.936;2023-02-15T05:33:39;45.60;;;25.25;;
2458;SDS011;1241;50.920;6.936;2023-02-15T05:36:05;38.38;;;22.30;;
2458;SDS011;1241;50.920;6.936;2023-02-15T05:38:33;45.47;;;24.63;;
2458;SDS011;1241;50.920;6.936;2023-02-15T05:41:01;37.35;;;24.25;;
2458;SDS011;1241;50.920;6.936;2023-02-15T05:43:27;46.83;;;26.00;;
2458;SDS011;1241;50.920;6.936;2023-02-15T05:45:54;40.50;;;23.23;;
2458;SDS011;1241;50.920;6.936;2023-02-15T05:48:21;45.10;;;23.77;;
2458;SDS011;1241;50.920;6.936;2023-02-15T05:50:56;44.30;;;24.88;;
2458;SDS011;1241;50.920;6.936;2023-02-15T05:53:28;39.50;;;23.30;;
2458;SDS011;1241;50.920;6.936;2023-02-15T05:55:55;42.75;;;23.80;;
2458;SDS011;1241;50.920;6.936;2023-02-15T05:58:25;37.08;;;22.80;;
2458;SDS011;1241;50.920;6.936;2023-02-15T06:00:52;48.70;;;24.42;;
2458;SDS011;1241;50.920;6.936;2023-02-15T06:03:17;42.27;;;24.40;;
2458;SDS011;1241;50.920;6.936;2023-02-15T06:05:43;43.33;;;23.38;;
2458;SDS011;1241;50.920;6.936;2023-02-15T06:08:09;45.37;;;25.60;;
2458;SDS011;1241;50.920;6.936;2023-02-15T06:10:35;40.63;;;23.43;;
2458;SDS011;1241;50.920;6.936;2023-02-15T06:13:01;39.90;;;22.53;;
2458;SDS011;1241;50.920;6.936;2023-02-15T06:15:26;35.70;;;23.80;;
2458;SDS011;1241;50.920;6.936;2023-02-15T06:17:52;41.10;;;23.77;;
2458;SDS011;1241;50.920;6.936;2023-02-15T06:20:18;41.83;;;22.87;;
2458;SDS011;1241;50.920;6.936;2023-02-15T06:22:43;43.20;;;22.47;;
2458;SDS011;1241;50.920;6.936;2023-02-15T06:25:09;46.33;;;23.70;;
2458;SDS011;1241;50.920;6.936;2023-02-15T06:27:36;41.28;;;21.88;;
2458;SDS011;1241;50.920;6.936;2023-02-15T06:30:02;36.75;;;22.30;;
2458;SDS011;1241;50.920;6.936;2023-02-15T06:32:32;34.45;;;21.85;;
2458;SDS011;1241;50.920;6.936;2023-02-15T06:34:58;38.77;;;23.23;;
2458;SDS011;1241;50.920;6.936;2023-02-15T06:37:23;37.90;;;22.73;;
2458;SDS011;1241;50.920;6.936;2023-02-15T06:39:49;44.00;;;25.70;;
2458;SDS011;1241;50.920;6.936;2023-02-15T06:42:15;38.13;;;23.03;;
2458;SDS011;1241;50.920;6.936;2023-02-15T06:44:42;47.17;;;23.85;;
2458;SDS011;1241;50.920;6.936;2023-02-15T06:47:09;40.83;;;22.35;;
2458;SDS011;1241;50.920;6.936;2023-02-15T06:49:35;39.85;;;23.15;;
2458;SDS011;1241;50.920;6.936;2023-02-15T06:52:01;39.97;;;22.27;;
2458;SDS011;1241;50.920;6.936;2023-02-15T06:54:27;35.53;;;22.03;;
2458;SDS011;1241;50.920;6.936;2023-02-15T06:56:53;41.40;;;23.10;;
2458;SDS011;1241;50.920;6.936;2023-02-15T06:59:18;35.03;;;23.10;;
2458;SDS011;1241;50.920;6.936;2023-02-15T07:01:44;38.57;;;22.37;;
2458;SDS011;1241;50.920;6.936;2023-02-15T07:04:10;42.30;;;23.00;;
2458;SDS011;1241;50.920;6.936;2023-02-15T07:06:35;47.20;;;24.60;;
2458;SDS011;1241;50.920;6.936;2023-02-15T07:09:01;47.80;;;26.47;;
2458;SDS011;1241;50.920;6.936;2023-02-15T07:11:27;44.37;;;22.57;;
2458;SDS011;1241;50.920;6.936;2023-02-15T07:14:11;42.42;;;22.55;;
2458;SDS011;1241;50.920;6.936;2023-02-15T07:16:37;40.13;;;23.02;;
2458;SDS011;1241;50.920;6.936;2023-02-15T07:19:03;39.13;;;20.93;;
2458;SDS011;1241;50.920;6.936;2023-02-15T07:21:29;38.40;;;22.50;;
2458;SDS011;1241;50.920;6.936;2023-02-15T07:23:58;40.63;;;21.73;;
2458;SDS011;1241;50.920;6.936;2023-02-15T07:26:23;39.78;;;20.38;;
2458;SDS011;1241;50.920;6.936;2023-02-15T07:28:50;34.67;;;21.33;;
2458;SDS011;1241;50.920;6.936;2023-02-15T07:31:15;32.03;;;19.77;;
2458;SDS011;1241;50.920;6.936;2023-02-15T07:33:41;42.60;;;25.30;;
2458;SDS011;1241;50.920;6.936;2023-02-15T07:36:07;33.13;;;22.03;;
2458;SDS011;1241;50.920;6.936;2023-02-15T07:38:37;37.65;;;23.45;;
2458;SDS011;1241;50.920;6.936;2023-02-15T07:41:05;37.83;;;22.73;;
2458;SDS011;1241;50.920;6.936;2023-02-15T07:43:33;37.03;;;21.30;;
2458;SDS011;1241;50.920;6.936;2023-02-15T07:46:02;34.80;;;21.38;;
2458;SDS011;1241;50.920;6.936;2023-02-15T07:48:29;34.95;;;21.50;;
2458;SDS011;1241;50.920;6.936;2023-02-15T07:50:58;29.50;;;18.83;;
2458;SDS011;1241;50.920;6.936;2023-02-15T07:53:25;35.92;;;21.42;;
2458;SDS011;1241;50.920;6.936;2023-02-15T07:55:50;33.87;;;21.40;;
2458;SDS011;1241;50.920;6.936;2023-02-15T07:58:17;34.55;;;21.42;;
2458;SDS011;1241;50.920;6.936;2023-02-15T08:00:43;37.83;;;22.02;;
2458;SDS011;1241;50.920;6.936;2023-02-15T08:03:24;29.25;;;17.45;;
2458;SDS011;1241;50.920;6.936;2023-02-15T08:05:54;30.83;;;18.90;;
2458;SDS011;1241;50.920;6.936;2023-02-15T08:08:22;33.40;;;20.50;;
2458;SDS011;1241;50.920;6.936;2023-02-15T08:11:01;32.97;;;19.88;;
2458;SDS011;1241;50.920;6.936;2023-02-15T08:13:45;27.48;;;18.85;;
2458;SDS011;1241;50.920;6.936;2023-02-15T08:16:23;27.90;;;19.13;;
2458;SDS011;1241;50.920;6.936;2023-02-15T08:21:33;23.77;;;18.80;;
2458;SDS011;1241;50.920;6.936;2023-02-15T08:24:00;27.55;;;19.33;;
2458;SDS011;1241;50.920;6.936;2023-02-15T08:26:27;29.00;;;18.25;;
2458;SDS011;1241;50.920;6.936;2023-02-15T08:28:53;28.88;;;17.42;;
2458;SDS011;1241;50.920;6.936;2023-02-15T08:31:19;25.52;;;17.20;;
2458;SDS011;1241;50.920;6.936;2023-02-15T08:33:46;27.30;;;18.30;;
2458;SDS011;1241;50.920;6.936;2023-02-15T08:36:13;27.50;;;19.55;;
2458;SDS011;1241;50.920;6.936;2023-02-15T08:38:41;26.25;;;16.10;;
2458;SDS011;1241;50.920;6.936;2023-02-15T08:41:12;27.98;;;19.80;;
2458;SDS011;1241;50.920;6.936;2023-02-15T08:43:44;29.73;;;18.60;;
2458;SDS011;1241;50.920;6.936;2023-02-15T08:46:11;25.30;;;17.10;;
2458;SDS011;1241;50.920;6.936;2023-02-15T08:48:38;24.25;;;18.13;;
2458;SDS011;1241;50.920;6.936;2023-02-15T08:51:08;23.73;;;15.43;;
2458;SDS011;1241;50.920;6.936;2023-02-15T08:53:37;24.92;;;17.77;;
2458;SDS011;1241;50.920;6.936;2023-02-15T08:56:03;26.38;;;19.13;;
2458;SDS011;1241;50.920;6.936;2023-02-15T08:58:30;27.77;;;19.67;;
2458;SDS011;1241;50.920;6.936;2023-02-15T09:00:56;27.63;;;17.97;;
2458;SDS011;1241;50.920;6.936;2023-02-15T09:03:22;27.88;;;17.60;;
2458;SDS011;1241;50.920;6.936;2023-02-15T09:05:48;25.70;;;17.30;;
2458;SDS011;1241;50.920;6.936;2023-02-15T09:08:14;29.30;;;17.53;;
2458;SDS011;1241;50.920;6.936;2023-02-15T09:10:40;25.63;;;18.83;;
2458;SDS011;1241;50.920;6.936;2023-02-15T09:13:06;23.90;;;17.50;;
2458;SDS011;1241;50.920;6.936;2023-02-15T09:15:32;25.15;;;17.63;;
2458;SDS011;1241;50.920;6.936;2023-02-15T09:17:58;20.73;;;16.40;;
2458;SDS011;1241;50.920;6.936;2023-02-15T09:20:26;23.10;;;16.48;;
2458;SDS011;1241;50.920;6.936;2023-02-15T09:22:53;23.75;;;15.80;;
2458;SDS011;1241;50.920;6.936;2023-02-15T09:25:19;26.23;;;18.90;;
2458;SDS011;1241;50.920;6.936;2023-02-15T09:27:45;22.85;;;15.02;;
2458;SDS011;1241;50.920;6.936;2023-02-15T09:30:11;25.23;;;16.50;;
2458;SDS011;1241;50.920;6.936;2023-02-15T09:32:37;24.13;;;15.55;;
2458;SDS011;1241;50.920;6.936;2023-02-15T09:35:03;22.63;;;16.00;;
2458;SDS011;1241;50.920;6.936;2023-02-15T09:37:32;24.90;;;15.10;;
2458;SDS011;1241;50.920;6.936;2023-02-15T09:39:57;23.45;;;14.75;;
2458;SDS011;1241;50.920;6.936;2023-02-15T09:45:31;18.83;;;14.38;;
2458;SDS011;1241;50.920;6.936;2023-02-15T09:48:41;21.20;;;15.77;;
2458;SDS011;1241;50.920;6.936;2023-02-15T10:02:56;21.30;;;15.82;;
2458;SDS011;1241;50.920;6.936;2023-02-15T10:05:40;22.95;;;16.92;;
2458;SDS011;1241;50.920;6.936;2023-02-15T10:22:33;26.13;;;15.90;;
2458;SDS011;1241;50.920;6.936;2023-02-15T10:28:04;20.52;;;14.52;;
2458;SDS011;1241;50.920;6.936;2023-02-15T10:30:56;18.38;;;13.43;;
2458;SDS011;1241;50.920;6.936;2023-02-15T10:47:41;18.92;;;13.45;;
2458;SDS011;1241;50.920;6.936;2023-02-15T10:50:35;21.80;;;15.27;;
2458;SDS011;1241;50.920;6.936;2023-02-15T10:55:55;18.88;;;14.93;;
2458;SDS011;1241;50.920;6.936;2023-02-15T11:01:30;18.63;;;14.73;;
2458;SDS011;1241;50.920;6.936;2023-02-15T11:06:51;23.50;;;17.23;;
2458;SDS011;1241;50.920;6.936;2023-02-15T11:09:21;19.40;;;15.90;;
2458;SDS011;1241;50.920;6.936;2023-02-15T11:11:50;22.17;;;15.40;;
2458;SDS011;1241;50.920;6.936;2023-02-15T11:14:36;18.00;;;15.35;;
2458;SDS011;1241;50.920;6.936;2023-02-15T11:17:24;19.27;;;15.85;;
2458;SDS011;1241;50.920;6.936;2023-02-15T11:22:33;24.75;;;16.95;;
2458;SDS011;1241;50.920;6.936;2023-02-15T11:24:59;18.35;;;14.20;;
2458;SDS011;1241;50.920;6.936;2023-02-15T11:27:29;22.92;;;16.30;;
2458;SDS011;1241;50.920;6.936;2023-02-15T11:32:32;23.50;;;17.60;;
2458;SDS011;1241;50.920;6.936;2023-02-15T11:37:32;21.77;;;16.63;;
2458;SDS011;1241;50.920;6.936;2023-02-15T11:40:02;20.42;;;14.88;;
2458;SDS011;1241;50.920;6.936;2023-02-15T11:42:39;20.80;;;15.65;;
2458;SDS011;1241;50.920;6.936;2023-02-15T11:47:54;21.27;;;14.27;;
2458;SDS011;1241;50.920;6.936;2023-02-15T11:50:28;17.23;;;14.43;;
2458;SDS011;1241;50.920;6.936;2023-02-15T11:52:58;20.10;;;15.45;;
2458;SDS011;1241;50.920;6.936;2023-02-15T11:55:27;19.85;;;15.18;;
2458;SDS011;1241;50.920;6.936;2023-02-15T11:57:55;18.45;;;16.05;;
2458;SDS011;1241;50.920;6.936;2023-02-15T12:05:55;20.50;;;15.88;;
2458;SDS011;1241;50.920;6.936;2023-02-15T12:08:25;17.05;;;13.52;;
2458;SDS011;1241;50.920;6.936;2023-02-15T12:11:03;18.30;;;16.13;;
2458;SDS011;1241;50.920;6.936;2023-02-15T12:14:13;19.10;;;14.70;;
2458;SDS011;1241;50.920;6.936;2023-02-15T12:16:52;18.05;;;14.63;;
2458;SDS011;1241;50.920;6.936;2023-02-15T12:21:57;20.95;;;16.48;;
2458;SDS011;1241;50.920;6.936;2023-02-15T12:24:26;20.45;;;16.63;;
2458;SDS011;1241;50.920;6.936;2023-02-15T12:27:01;18.80;;;15.10;;
2458;SDS011;1241;50.920;6.936;2023-02-15T12:29:41;23.00;;;15.93;;
2458;SDS011;1241;50.920;6.936;2023-02-15T12:32:22;19.33;;;15.45;;
2458;SDS011;1241;50.920;6.936;2023-02-15T12:37:56;19.10;;;16.92;;
2458;SDS011;1241;50.920;6.936;2023-02-15T12:40:28;18.08;;;15.73;;
2458;SDS011;1241;50.920;6.936;2023-02-15T12:42:55;20.77;;;15.02;;
2458;SDS011;1241;50.920;6.936;2023-02-15T12:50:35;20.05;;;15.48;;
2458;SDS011;1241;50.920;6.936;2023-02-15T12:53:11;16.33;;;13.63;;
2458;SDS011;1241;50.920;6.936;2023-02-15T12:55:52;18.42;;;15.00;;
2458;SDS011;1241;50.920;6.936;2023-02-15T12:58:19;22.63;;;15.90;;
2458;SDS011;1241;50.920;6.936;2023-02-15T13:03:28;17.30;;;14.80;;
2458;SDS011;1241;50.920;6.936;2023-02-15T13:05:54;19.20;;;14.75;;
2458;SDS011;1241;50.920;6.936;2023-02-15T13:08:22;19.67;;;14.95;;
2458;SDS011;1241;50.920;6.936;2023-02-15T13:11:00;18.85;;;15.00;;
2458;SDS011;1241;50.920;6.936;2023-02-15T13:13:33;18.42;;;14.82;;
2458;SDS011;1241;50.920;6.936;2023-02-15T13:16:02;16.70;;;14.15;;
2458;SDS011;1241;50.920;6.936;2023-02-15T13:18:36;20.70;;;15.35;;
2458;SDS011;1241;50.920;6.936;2023-02-15T13:21:06;19.02;;;15.23;;
2458;SDS011;1241;50.920;6.936;2023-02-15T13:23:37;22.58;;;16.02;;
2458;SDS011;1241;50.920;6.936;2023-02-15T13:26:04;26.55;;;16.88;;
2458;SDS011;1241;50.920;6.936;2023-02-15T13:28:42;18.13;;;16.08;;
2458;SDS011;1241;50.920;6.936;2023-02-15T13:31:15;21.13;;;15.18;;
2458;SDS011;1241;50.920;6.936;2023-02-15T13:33:46;16.98;;;15.13;;
2458;SDS011;1241;50.920;6.936;2023-02-15T13:45:13;19.40;;;15.55;;
2458;SDS011;1241;50.920;6.936;2023-02-15T13:47:58;18.83;;;14.82;;
2458;SDS011;1241;50.920;6.936;2023-02-15T13:50:59;19.77;;;14.35;;
2458;SDS011;1241;50.920;6.936;2023-02-15T13:53:36;19.23;;;13.90;;
2458;SDS011;1241;50.920;6.936;2023-02-15T14:04:22;17.52;;;13.25;;
2458;SDS011;1241;50.920;6.936;2023-02-15T14:09:29;15.48;;;13.48;;
2458;SDS011;1241;50.920;6.936;2023-02-15T14:12:18;15.80;;;14.05;;
2458;SDS011;1241;50.920;6.936;2023-02-15T14:15:09;19.85;;;14.55;;
2458;SDS011;1241;50.920;6.936;2023-02-15T14:17:53;19.40;;;16.77;;
2458;SDS011;1241;50.920;6.936;2023-02-15T14:20:41;17.88;;;14.60;;
2458;SDS011;1241;50.920;6.936;2023-02-15T14:28:19;16.73;;;14.52;;
2458;SDS011;1241;50.920;6.936;2023-02-15T14:31:02;18.20;;;15.52;;
2458;SDS011;1241;50.920;6.936;2023-02-15T14:33:31;17.05;;;15.07;;
2458;SDS011;1241;50.920;6.936;2023-02-15T14:36:08;20.73;;;15.75;;
2458;SDS011;1241;50.920;6.936;2023-02-15T14:41:59;16.73;;;14.80;;
2458;SDS011;1241;50.920;6.936;2023-02-15T14:44:37;20.73;;;14.90;;
2458;SDS011;1241;50.920;6.936;2023-02-15T14:47:11;19.27;;;14.77;;
2458;SDS011;1241;50.920;6.936;2023-02-15T14:49:43;16.80;;;14.85;;
2458;SDS011;1241;50.920;6.936;2023-02-15T14:52:09;17.80;;;15.27;;
2458;SDS011;1241;50.920;6.936;2023-02-15T15:07:57;18.90;;;14.20;;
2458;SDS011;1241;50.920;6.936;2023-02-15T15:12:54;18.17;;;15.37;;
2458;SDS011;1241;50.920;6.936;2023-02-15T15:17:55;21.25;;;15.82;;
2458;SDS011;1241;50.920;6.936;2023-02-15T15:28:10;21.77;;;18.23;;
2458;SDS011;1241;50.920;6.936;2023-02-15T15:30:55;21.33;;;16.60;;
2458;SDS011;1241;50.920;6.936;2023-02-15T15:50:12;16.45;;;14.75;;
2458;SDS011;1241;50.920;6.936;2023-02-15T15:52:40;22.23;;;15.18;;
2458;SDS011;1241;50.920;6.936;2023-02-15T15:55:24;19.73;;;15.10;;
2458;SDS011;1241;50.920;6.936;2023-02-15T15:57:53;18.40;;;16.00;;
2458;SDS011;1241;50.920;6.936;2023-02-15T16:00:33;17.88;;;15.25;;
2458;SDS011;1241;50.920;6.936;2023-02-15T16:03:16;17.02;;;15.15;;
2458;SDS011;1241;50.920;6.936;2023-02-15T16:05:47;17.50;;;14.45;;
2458;SDS011;1241;50.920;6.936;2023-02-15T16:08:27;20.73;;;15.68;;
2458;SDS011;1241;50.920;6.936;2023-02-15T16:11:00;18.52;;;15.32;;
2458;SDS011;1241;50.920;6.936;2023-02-15T16:13:35;21.33;;;16.55;;
2458;SDS011;1241;50.920;6.936;2023-02-15T16:16:00;21.00;;;14.90;;
2458;SDS011;1241;50.920;6.936;2023-02-15T16:18:26;21.93;;;16.90;;
2458;SDS011;1241;50.920;6.936;2023-02-15T16:20:54;23.10;;;16.40;;
2458;SDS011;1241;50.920;6.936;2023-02-15T16:26:15;19.77;;;16.33;;
2458;SDS011;1241;50.920;6.936;2023-02-15T16:28:47;17.83;;;14.95;;
2458;SDS011;1241;50.920;6.936;2023-02-15T16:31:16;18.13;;;16.00;;
2458;SDS011;1241;50.920;6.936;2023-02-15T16:33:42;21.80;;;15.65;;
2458;SDS011;1241;50.920;6.936;2023-02-15T16:36:19;24.50;;;16.65;;
2458;SDS011;1241;50.920;6.936;2023-02-15T16:41:27;27.63;;;20.00;;
2458;SDS011;1241;50.920;6.936;2023-02-15T16:43:55;20.00;;;16.92;;
2458;SDS011;1241;50.920;6.936;2023-02-15T16:46:28;19.95;;;16.52;;
2458;SDS011;1241;50.920;6.936;2023-02-15T16:48:59;20.15;;;16.30;;
2458;SDS011;1241;50.920;6.936;2023-02-15T16:51:27;22.83;;;16.30;;
2458;SDS011;1241;50.920;6.936;2023-02-15T16:53:56;22.30;;;16.42;;
2458;SDS011;1241;50.920;6.936;2023-02-15T16:56:29;19.77;;;16.20;;
2458;SDS011;1241;50.920;6.936;2023-02-15T16:58:56;20.58;;;15.98;;
2458;SDS011;1241;50.920;6.936;2023-02-15T17:01:24;20.95;;;15.50;;
2458;SDS011;1241;50.920;6.936;2023-02-15T17:04:09;20.10;;;16.95;;
2458;SDS011;1241;50.920;6.936;2023-02-15T17:06:36;23.30;;;16.48;;
2458;SDS011;1241;50.920;6.936;2023-02-15T17:09:05;17.50;;;15.30;;
2458;SDS011;1241;50.920;6.936;2023-02-15T17:11:42;18.48;;;14.40;;
2458;SDS011;1241;50.920;6.936;2023-02-15T17:16:42;20.80;;;16.70;;
2458;SDS011;1241;50.920;6.936;2023-02-15T17:19:25;19.88;;;15.90;;
2458;SDS011;1241;50.920;6.936;2023-02-15T17:22:03;19.92;;;15.68;;
2458;SDS011;1241;50.920;6.936;2023-02-15T17:24:42;19.45;;;15.05;;
2458;SDS011;1241;50.920;6.936;2023-02-15T17:27:14;19.02;;;16.80;;
2458;SDS011;1241;50.920;6.936;2023-02-15T17:29:45;22.08;;;18.33;;
2458;SDS011;1241;50.920;6.936;2023-02-15T17:32:18;22.88;;;17.23;;
2458;SDS011;1241;50.920;6.936;2023-02-15T17:34:56;21.83;;;16.10;;
2458;SDS011;1241;50.920;6.936;2023-02-15T17:37:42;24.38;;;16.50;;
2458;SDS011;1241;50.920;6.936;2023-02-15T17:42:44;22.15;;;18.77;;
2458;SDS011;1241;50.920;6.936;2023-02-15T17:45:10;23.00;;;15.43;;
2458;SDS011;1241;50.920;6.936;2023-02-15T17:47:35;24.10;;;17.80;;
2458;SDS011;1241;50.920;6.936;2023-02-15T17:50:02;24.40;;;17.50;;
2458;SDS011;1241;50.920;6.936;2023-02-15T17:52:30;21.98;;;17.17;;
2458;SDS011;1241;50.920;6.936;2023-02-15T17:54:56;21.48;;;17.88;;
2458;SDS011;1241;50.920;6.936;2023-02-15T17:57:40;19.95;;;15.98;;
2458;SDS011;1241;50.920;6.936;2023-02-15T18:00:06;19.93;;;16.37;;
2458;SDS011;1241;50.920;6.936;2023-02-15T18:02:51;20.08;;;17.13;;
2458;SDS011;1241;50.920;6.936;2023-02-15T18:05:35;25.77;;;19.17;;
2458;SDS011;1241;50.920;6.936;2023-02-15T18:08:22;25.48;;;17.90;;
2458;SDS011;1241;50.920;6.936;2023-02-15T18:11:10;19.98;;;17.08;;
2458;SDS011;1241;50.920;6.936;2023-02-15T18:13:54;21.58;;;17.38;;
2458;SDS011;1241;50.920;6.936;2023-02-15T18:16:25;21.75;;;16.60;;
2458;SDS011;1241;50.920;6.936;2023-02-15T18:18:54;22.17;;;18.13;;
2458;SDS011;1241;50.920;6.936;2023-02-15T18:21:21;22.50;;;16.95;;
2458;SDS011;1241;50.920;6.936;2023-02-15T18:23:47;21.75;;;17.98;;
2458;SDS011;1241;50.920;6.936;2023-02-15T18:26:23;22.97;;;17.63;;
2458;SDS011;1241;50.920;6.936;2023-02-15T18:28:50;20.58;;;16.20;;
2458;SDS011;1241;50.920;6.936;2023-02-15T18:31:16;26.45;;;18.05;;
2458;SDS011;1241;50.920;6.936;2023-02-15T18:33:43;23.38;;;17.45;;
2458;SDS011;1241;50.920;6.936;2023-02-15T18:36:16;24.30;;;17.05;;
2458;SDS011;1241;50.920;6.936;2023-02-15T18:38:46;27.88;;;18.55;;